Time;durP1;ratioP1;P1;durP2;ratioP2;P2;SDS_P1;SDS_P2;PMS_P1;PMS_P2;Temp;Humidity;BMP_temperature;BMP_pressure;BME280_temperature;BME280_humidity;BME280_pressure;Samples;Min_cycle;Max_cycle;Signal;HPM_P1;HPM_P2
2022/03/26 00:01:06;;;;;;;26.13;14.87;;;13.00;33.60;;;;;;5128937;27;20481;-85
2022/03/26 00:03:35;;;;;;;29.40;14.47;;;13.00;33.80;;;;;;5128392;27;20450;-85
2022/03/26 00:06:02;;;;;;;36.20;13.67;;;12.90;34.10;;;;;;5126947;27;20455;-85
2022/03/26 00:08:29;;;;;;;19.60;12.53;;;12.90;34.40;;;;;;5131310;27;20480;-85
2022/03/26 00:10:56;;;;;;;24.90;12.73;;;12.90;34.20;;;;;;5131874;27;20449;-85
2022/03/26 00:13:23;;;;;;;27.17;13.03;;;12.80;34.60;;;;;;5132054;27;20445;-85
2022/03/26 00:15:50;;;;;;;22.83;12.53;;;12.80;34.80;;;;;;5133341;27;20446;-84
2022/03/26 00:18:18;;;;;;;18.73;11.90;;;12.70;34.90;;;;;;5129058;27;20462;-85
2022/03/26 00:20:46;;;;;;;21.43;12.13;;;12.70;35.00;;;;;;5132667;27;20450;-85
2022/03/26 00:23:13;;;;;;;22.90;12.40;;;12.70;34.90;;;;;;5110199;27;20465;-85
2022/03/26 00:25:40;;;;;;;26.80;13.07;;;12.60;35.00;;;;;;5131882;27;21052;-85
2022/03/26 00:28:07;;;;;;;22.10;12.20;;;12.60;34.90;;;;;;5129987;27;20480;-85
2022/03/26 00:30:35;;;;;;;27.70;12.97;;;12.40;33.60;;;;;;5113448;27;20460;-85
2022/03/26 00:33:02;;;;;;;22.50;13.13;;;12.30;34.70;;;;;;5131672;27;20438;-85
2022/03/26 00:35:31;;;;;;;36.80;14.40;;;12.30;35.50;;;;;;5132392;27;20576;-85
2022/03/26 00:37:58;;;;;;;22.60;11.97;;;12.20;35.60;;;;;;5128606;27;20490;-85
2022/03/26 00:40:25;;;;;;;23.83;12.57;;;12.20;35.00;;;;;;5133569;27;20480;-85
2022/03/26 00:42:52;;;;;;;29.00;13.10;;;12.30;35.10;;;;;;5132550;27;20458;-85
2022/03/26 00:45:19;;;;;;;26.03;12.50;;;12.30;34.90;;;;;;5132801;27;20925;-85
2022/03/26 00:47:46;;;;;;;22.60;13.83;;;12.20;34.90;;;;;;5132666;27;20476;-83
2022/03/26 00:50:13;;;;;;;27.10;14.03;;;12.20;35.00;;;;;;5130831;27;20841;-85
2022/03/26 00:52:41;;;;;;;22.27;12.63;;;12.20;34.80;;;;;;5131516;27;20940;-85
2022/03/26 00:55:09;;;;;;;22.93;11.17;;;12.20;35.50;;;;;;5111685;27;20848;-85
2022/03/26 00:57:36;;;;;;;21.87;13.07;;;12.20;34.90;;;;;;5132033;27;20653;-85
2022/03/26 01:00:06;;;;;;;32.33;12.87;;;12.10;34.80;;;;;;5130793;27;20448;-85
2022/03/26 01:02:33;;;;;;;24.00;13.30;;;12.00;35.30;;;;;;5131041;27;20869;-85
2022/03/26 01:05:00;;;;;;;24.33;14.23;;;11.90;35.50;;;;;;5132237;27;21002;-85
2022/03/26 01:07:27;;;;;;;26.97;14.60;;;11.90;35.40;;;;;;5114124;27;20866;-85
2022/03/26 01:09:55;;;;;;;24.93;12.23;;;11.90;35.30;;;;;;5131443;27;20906;-86
2022/03/26 01:12:23;;;;;;;29.20;12.83;;;11.90;35.70;;;;;;5132244;27;20560;-85
2022/03/26 01:14:51;;;;;;;30.63;13.43;;;11.90;35.90;;;;;;5129638;27;20446;-84
2022/03/26 01:17:18;;;;;;;19.80;11.60;;;11.80;35.90;;;;;;5130650;27;20463;-85
2022/03/26 01:19:46;;;;;;;24.10;11.40;;;11.70;35.80;;;;;;5131091;27;20547;-85
2022/03/26 01:22:13;;;;;;;25.07;12.77;;;11.60;36.40;;;;;;5114166;27;20442;-85
2022/03/26 01:24:40;;;;;;;24.90;13.20;;;11.50;36.80;;;;;;5132515;27;20961;-85
2022/03/26 01:27:09;;;;;;;33.57;13.70;;;11.50;36.90;;;;;;5132583;27;20449;-85
2022/03/26 01:29:38;;;;;;;22.90;12.87;;;11.50;37.10;;;;;;5134201;27;20479;-85
2022/03/26 01:32:07;;;;;;;26.57;13.50;;;11.50;37.10;;;;;;5129187;27;20445;-85
2022/03/26 01:34:35;;;;;;;28.47;14.60;;;11.50;37.70;;;;;;5133347;27;20758;-84
2022/03/26 01:37:02;;;;;;;24.70;12.50;;;11.50;38.00;;;;;;5131715;27;20437;-85
2022/03/26 01:39:29;;;;;;;23.07;13.00;;;11.50;37.60;;;;;;5131920;27;20462;-85
2022/03/26 01:42:01;;;;;;;24.80;12.93;;;11.40;37.30;;;;;;5128372;27;21036;-85
2022/03/26 01:44:30;;;;;;;24.70;12.20;;;11.40;37.30;;;;;;5131573;27;20536;-85
2022/03/26 01:46:58;;;;;;;28.07;13.37;;;11.30;37.20;;;;;;5119878;27;20441;-86
2022/03/26 01:49:25;;;;;;;25.97;11.83;;;11.30;38.20;;;;;;5133086;27;20478;-85
2022/03/26 01:51:52;;;;;;;26.57;12.83;;;11.30;37.60;;;;;;5131115;27;20457;-86
2022/03/26 01:54:20;;;;;;;27.40;13.83;;;11.20;38.00;;;;;;5129062;27;20441;-85
2022/03/26 01:56:47;;;;;;;23.80;12.07;;;11.10;38.30;;;;;;5130669;27;20456;-85
2022/03/26 01:59:14;;;;;;;28.20;12.63;;;11.10;37.50;;;;;;5129580;27;20461;-85
2022/03/26 02:01:43;;;;;;;21.87;12.10;;;11.00;38.10;;;;;;5112791;27;20445;-85
2022/03/26 02:04:11;;;;;;;24.93;12.47;;;11.00;37.80;;;;;;5127268;27;20699;-85
2022/03/26 02:06:39;;;;;;;22.50;11.70;;;11.00;37.60;;;;;;5130520;27;20444;-85
2022/03/26 02:09:08;;;;;;;23.13;12.60;;;11.00;37.60;;;;;;5129694;27;20758;-85
2022/03/26 02:11:37;;;;;;;23.17;11.50;;;11.00;37.60;;;;;;5132060;27;21045;-84
2022/03/26 02:14:07;;;;;;;21.33;11.57;;;11.00;37.70;;;;;;5131954;27;20945;-86
2022/03/26 02:16:34;;;;;;;27.53;13.17;;;10.90;37.70;;;;;;5114963;27;20426;-85
2022/03/26 02:19:04;;;;;;;24.30;12.33;;;10.90;37.80;;;;;;5128248;27;20523;-85
2022/03/26 02:21:34;;;;;;;27.30;13.57;;;10.90;37.60;;;;;;5113789;27;20436;-85
2022/03/26 02:24:02;;;;;;;20.27;11.17;;;10.90;37.70;;;;;;5128704;27;20452;-86
2022/03/26 02:26:29;;;;;;;22.00;12.70;;;10.80;36.90;;;;;;5130531;27;20791;-86
2022/03/26 02:28:58;;;;;;;24.60;11.77;;;10.50;37.70;;;;;;5128132;27;20470;-85
2022/03/26 02:31:26;;;;;;;32.13;14.20;;;10.40;38.40;;;;;;5130110;27;20449;-86
2022/03/26 02:33:54;;;;;;;25.27;12.90;;;10.40;39.00;;;;;;5130995;27;20450;-83
2022/03/26 02:36:21;;;;;;;27.07;12.07;;;10.50;38.70;;;;;;5130328;27;20454;-85
2022/03/26 02:38:49;;;;;;;22.57;12.13;;;10.50;38.40;;;;;;5129462;27;20552;-86
2022/03/26 02:41:16;;;;;;;28.60;13.90;;;10.50;38.00;;;;;;5111840;27;20635;-86
2022/03/26 02:43:43;;;;;;;21.70;11.67;;;10.50;37.90;;;;;;5131347;27;20454;-85
2022/03/26 02:46:10;;;;;;;28.23;12.60;;;10.50;38.00;;;;;;5128344;27;20951;-85
2022/03/26 02:48:39;;;;;;;26.20;11.87;;;10.40;37.90;;;;;;5130529;27;20504;-85
2022/03/26 02:51:06;;;;;;;25.97;12.03;;;10.40;38.20;;;;;;5129961;27;20557;-85
2022/03/26 02:53:33;;;;;;;32.20;13.50;;;10.40;38.10;;;;;;5130851;27;20460;-85
2022/03/26 02:56:02;;;;;;;27.10;12.30;;;10.40;38.10;;;;;;5128859;27;21203;-85
2022/03/26 02:58:29;;;;;;;27.80;12.90;;;10.40;38.10;;;;;;5111860;27;20468;-85
2022/03/26 03:00:57;;;;;;;22.97;11.97;;;10.30;38.40;;;;;;5127099;27;20447;-85
2022/03/26 03:03:24;;;;;;;23.87;12.33;;;10.30;38.40;;;;;;5130517;27;20652;-85
2022/03/26 03:05:51;;;;;;;23.27;11.70;;;10.30;38.50;;;;;;5129279;27;20521;-85
2022/03/26 03:08:18;;;;;;;24.43;12.07;;;10.20;38.20;;;;;;5128325;27;20520;-85
2022/03/26 03:10:46;;;;;;;20.17;11.67;;;10.20;38.40;;;;;;5129685;27;20445;-85
2022/03/26 03:13:14;;;;;;;23.50;12.20;;;10.20;38.60;;;;;;5130931;27;20450;-85
2022/03/26 03:15:43;;;;;;;27.10;12.63;;;10.10;38.70;;;;;;5130278;27;20444;-85
2022/03/26 03:18:10;;;;;;;23.63;13.50;;;10.10;38.90;;;;;;5130288;27;20476;-85
2022/03/26 03:20:37;;;;;;;35.80;15.47;;;10.10;38.70;;;;;;5131344;27;20472;-84
2022/03/26 03:23:05;;;;;;;27.67;15.20;;;9.90;39.00;;;;;;5129631;27;20654;-86
2022/03/26 03:25:32;;;;;;;26.47;11.90;;;9.60;40.10;;;;;;5131839;27;20478;-84
2022/03/26 03:27:59;;;;;;;21.80;12.80;;;9.40;40.70;;;;;;5128071;27;20474;-86
2022/03/26 03:30:28;;;;;;;34.13;12.27;;;9.50;41.00;;;;;;5128711;27;20436;-86
2022/03/26 03:32:56;;;;;;;24.40;13.07;;;9.60;40.50;;;;;;5127746;27;21139;-85
2022/03/26 03:35:23;;;;;;;24.60;13.80;;;9.60;39.80;;;;;;5128501;27;20615;-84
2022/03/26 03:37:50;;;;;;;28.73;13.23;;;9.60;40.00;;;;;;5130830;27;20461;-85
2022/03/26 03:40:17;;;;;;;26.77;13.37;;;9.50;40.70;;;;;;5128650;27;20445;-86
2022/03/26 03:42:44;;;;;;;25.63;14.27;;;9.60;40.50;;;;;;5129905;27;20445;-85
2022/03/26 03:45:12;;;;;;;28.90;15.53;;;9.60;39.20;;;;;;5131181;27;20442;-85
2022/03/26 03:47:40;;;;;;;31.40;14.43;;;9.60;39.10;;;;;;5135392;27;20468;-85
2022/03/26 03:50:08;;;;;;;29.63;14.00;;;9.50;40.10;;;;;;5132922;27;20909;-85
2022/03/26 03:52:35;;;;;;;32.93;14.50;;;9.50;41.00;;;;;;5135128;27;21105;-85
2022/03/26 03:55:02;;;;;;;28.50;12.97;;;9.50;40.90;;;;;;5132677;27;20820;-85
2022/03/26 03:57:29;;;;;;;24.43;12.40;;;9.50;40.60;;;;;;5134919;27;20476;-85
2022/03/26 03:59:56;;;;;;;20.60;11.97;;;9.50;40.70;;;;;;5133929;27;20448;-85
2022/03/26 04:02:24;;;;;;;27.00;13.13;;;9.50;41.00;;;;;;5136750;27;20471;-85
2022/03/26 04:04:53;;;;;;;24.77;11.60;;;9.40;41.00;;;;;;5132057;27;20446;-85
2022/03/26 04:07:20;;;;;;;31.23;11.83;;;9.30;41.60;;;;;;5134467;27;20535;-85
2022/03/26 04:09:48;;;;;;;25.60;13.23;;;9.20;41.70;;;;;;5133684;27;20522;-85
2022/03/26 04:12:15;;;;;;;21.53;11.40;;;9.20;41.70;;;;;;5113111;27;20441;-85
2022/03/26 04:14:43;;;;;;;22.30;12.20;;;9.30;41.70;;;;;;5133608;27;20505;-85
2022/03/26 04:17:12;;;;;;;24.83;12.67;;;9.30;41.50;;;;;;5131907;27;21452;-85
2022/03/26 04:19:39;;;;;;;23.20;11.87;;;9.20;41.50;;;;;;5119435;27;20445;-86
2022/03/26 04:22:08;;;;;;;27.37;12.63;;;9.30;41.40;;;;;;5131790;27;20645;-85
2022/03/26 04:24:36;;;;;;;22.93;12.10;;;9.20;41.10;;;;;;5133581;27;20453;-85
2022/03/26 04:27:05;;;;;;;29.43;12.20;;;9.20;41.30;;;;;;5131163;27;20503;-85
2022/03/26 04:29:32;;;;;;;26.77;11.70;;;9.30;41.10;;;;;;5131237;27;20478;-85
2022/03/26 04:31:59;;;;;;;23.97;11.53;;;9.30;40.90;;;;;;5132627;27;20480;-85
2022/03/26 04:34:27;;;;;;;28.23;12.40;;;9.30;41.20;;;;;;5132244;27;20533;-85
2022/03/26 04:36:54;;;;;;;24.93;13.30;;;9.20;41.40;;;;;;5131558;27;20622;-85
2022/03/26 04:39:22;;;;;;;20.10;11.40;;;9.20;41.40;;;;;;5132666;27;20469;-86
2022/03/26 04:41:49;;;;;;;26.30;13.57;;;9.10;41.30;;;;;;5131145;27;20885;-84
2022/03/26 04:44:17;;;;;;;24.17;11.93;;;9.10;41.30;;;;;;5112697;27;20457;-85
2022/03/26 04:46:44;;;;;;;27.20;13.73;;;9.10;41.70;;;;;;5135745;27;20821;-85
2022/03/26 04:49:11;;;;;;;21.70;12.10;;;9.00;42.00;;;;;;5131677;27;20473;-85
2022/03/26 04:51:38;;;;;;;30.40;12.87;;;9.00;41.70;;;;;;5133004;27;20456;-85
2022/03/26 04:54:05;;;;;;;25.50;11.17;;;9.00;41.60;;;;;;5130760;27;20532;-85
2022/03/26 04:56:33;;;;;;;25.20;12.37;;;9.00;41.60;;;;;;5135211;27;20468;-85
2022/03/26 04:59:00;;;;;;;21.30;11.60;;;9.00;41.80;;;;;;5121539;27;20470;-85
2022/03/26 05:01:27;;;;;;;26.07;13.23;;;8.90;42.00;;;;;;5133510;27;20464;-84
2022/03/26 05:03:54;;;;;;;28.47;12.73;;;8.90;42.20;;;;;;5133116;27;20462;-84
2022/03/26 05:06:21;;;;;;;22.33;12.23;;;8.80;42.90;;;;;;5133194;27;20445;-85
2022/03/26 05:08:49;;;;;;;24.20;12.33;;;8.80;42.50;;;;;;5131170;27;20458;-84
2022/03/26 05:11:16;;;;;;;24.30;11.93;;;8.90;42.30;;;;;;5133544;27;20450;-85
2022/03/26 05:13:45;;;;;;;27.10;13.10;;;8.90;42.00;;;;;;5114769;27;20832;-86
2022/03/26 05:16:12;;;;;;;31.03;12.67;;;8.80;42.10;;;;;;5134951;27;20473;-86
2022/03/26 05:18:39;;;;;;;29.83;15.03;;;8.80;42.10;;;;;;5132445;27;20473;-85
2022/03/26 05:21:07;;;;;;;21.13;11.73;;;8.80;42.00;;;;;;5129930;27;20449;-85
2022/03/26 05:23:34;;;;;;;22.13;13.10;;;8.80;42.10;;;;;;5134574;27;20453;-86
2022/03/26 05:26:02;;;;;;;28.90;13.10;;;8.80;42.20;;;;;;5129866;27;20445;-86
2022/03/26 05:28:29;;;;;;;28.27;13.27;;;8.80;42.00;;;;;;5112893;27;20470;-85
2022/03/26 05:30:58;;;;;;;33.83;15.50;;;8.80;42.60;;;;;;5127791;27;20470;-86
2022/03/26 05:33:25;;;;;;;21.90;12.03;;;8.50;43.60;;;;;;5129758;27;20448;-85
2022/03/26 05:35:52;;;;;;;34.90;15.40;;;8.30;44.30;;;;;;5129294;27;20445;-86
2022/03/26 05:38:19;;;;;;;36.73;20.23;;;8.30;45.90;;;;;;5127951;27;20469;-84
2022/03/26 05:40:46;;;;;;;22.10;13.00;;;8.40;45.40;;;;;;5129905;27;21273;-81
2022/03/26 05:43:13;;;;;;;29.30;13.90;;;8.50;45.40;;;;;;5127112;27;20452;-85
2022/03/26 05:45:40;;;;;;;24.57;11.50;;;8.50;45.20;;;;;;5127631;27;20443;-85
2022/03/26 05:48:08;;;;;;;27.00;14.50;;;8.50;45.30;;;;;;5128378;27;21038;-86
2022/03/26 05:50:36;;;;;;;38.30;20.20;;;8.50;45.20;;;;;;5111825;27;20564;-85
2022/03/26 05:53:03;;;;;;;36.20;17.80;;;8.60;44.90;;;;;;5127855;27;20445;-84
2022/03/26 05:55:30;;;;;;;37.50;18.40;;;8.60;44.80;;;;;;5128888;27;20452;-85
2022/03/26 05:57:57;;;;;;;38.23;20.90;;;8.60;45.40;;;;;;5126998;27;20557;-86
2022/03/26 06:00:24;;;;;;;32.63;18.37;;;8.60;45.20;;;;;;5128563;27;20987;-86
2022/03/26 06:02:51;;;;;;;32.90;16.83;;;8.60;45.20;;;;;;5116622;27;20507;-86
2022/03/26 06:05:20;;;;;;;39.27;17.50;;;8.60;44.60;;;;;;5130088;27;20450;-86
2022/03/26 06:07:47;;;;;;;34.53;17.83;;;8.50;45.20;;;;;;5128335;27;20470;-86
2022/03/26 06:10:14;;;;;;;32.57;18.30;;;8.50;45.20;;;;;;5129290;27;20526;-85
2022/03/26 06:12:41;;;;;;;50.40;18.77;;;8.50;45.80;;;;;;5131266;27;20441;-85
2022/03/26 06:15:10;;;;;;;29.47;16.53;;;8.60;45.60;;;;;;5126083;27;20552;-84
2022/03/26 06:17:37;;;;;;;31.10;15.90;;;8.60;45.70;;;;;;5130294;27;20472;-85
2022/03/26 06:20:04;;;;;;;26.27;15.10;;;8.60;45.50;;;;;;5126524;27;20972;-84
2022/03/26 06:22:33;;;;;;;31.30;14.50;;;8.60;45.90;;;;;;5129264;27;20453;-84
2022/03/26 06:25:00;;;;;;;27.10;14.27;;;8.70;45.80;;;;;;5126547;27;20442;-84
2022/03/26 06:27:27;;;;;;;36.60;17.30;;;8.60;45.80;;;;;;5117069;27;20449;-84
2022/03/26 06:29:54;;;;;;;27.70;14.17;;;8.70;45.90;;;;;;5126287;27;20477;-85
2022/03/26 06:32:21;;;;;;;25.03;12.77;;;8.70;45.70;;;;;;5127796;27;20798;-84
2022/03/26 06:34:48;;;;;;;23.27;12.23;;;8.70;45.50;;;;;;5125797;27;20502;-85
2022/03/26 06:37:15;;;;;;;32.33;14.93;;;8.80;45.60;;;;;;5129161;27;20628;-84
2022/03/26 06:39:43;;;;;;;27.63;14.73;;;8.80;45.90;;;;;;5128835;27;20481;-84
2022/03/26 06:42:10;;;;;;;31.10;15.73;;;8.70;46.00;;;;;;5127518;27;20473;-85
2022/03/26 06:44:38;;;;;;;42.13;16.03;;;8.80;46.30;;;;;;5126053;27;20509;-84
2022/03/26 06:47:06;;;;;;;29.63;16.80;;;8.70;46.90;;;;;;5126814;27;20445;-84
2022/03/26 06:49:33;;;;;;;26.90;16.43;;;8.80;46.50;;;;;;5112392;27;20811;-85
2022/03/26 06:52:00;;;;;;;29.47;15.67;;;8.80;46.00;;;;;;5127387;27;20793;-85
2022/03/26 06:54:27;;;;;;;30.43;14.37;;;8.80;46.30;;;;;;5128142;27;20669;-85
2022/03/26 06:56:59;;;;;;;25.23;12.33;;;8.90;46.40;;;;;;5127746;27;20691;-85
2022/03/26 06:59:28;;;;;;;26.70;14.00;;;8.90;46.40;;;;;;5129205;27;20453;-85
2022/03/26 07:01:55;;;;;;;30.93;16.00;;;8.90;46.40;;;;;;5127443;27;20452;-85
2022/03/26 07:04:22;;;;;;;35.60;15.90;;;8.90;45.90;;;;;;5109959;27;21361;-85
2022/03/26 07:06:49;;;;;;;30.07;15.03;;;8.90;46.30;;;;;;5107844;27;20757;-82
2022/03/26 07:09:17;;;;;;;25.73;14.17;;;8.80;47.10;;;;;;5128533;27;20469;-85
2022/03/26 07:11:44;;;;;;;30.23;14.20;;;8.90;46.90;;;;;;5129021;27;20456;-84
2022/03/26 07:14:12;;;;;;;28.57;15.27;;;9.00;46.40;;;;;;5126935;27;20523;-84
2022/03/26 07:16:39;;;;;;;33.27;16.10;;;9.00;47.00;;;;;;5128876;27;20952;-84
2022/03/26 07:19:06;;;;;;;35.17;17.80;;;9.00;46.90;;;;;;5134034;27;20480;-85
2022/03/26 07:21:33;;;;;;;32.10;14.70;;;9.10;46.90;;;;;;5134590;27;21088;-85
2022/03/26 07:24:00;;;;;;;31.07;15.40;;;9.10;46.50;;;;;;5135587;27;20449;-85
2022/03/26 07:26:27;;;;;;;34.10;15.40;;;9.10;46.30;;;;;;5133708;27;20449;-85
2022/03/26 07:28:55;;;;;;;25.43;14.07;;;9.10;46.10;;;;;;5133276;27;20476;-84
2022/03/26 07:31:23;;;;;;;27.17;14.53;;;9.10;46.20;;;;;;5116296;27;20461;-85
2022/03/26 07:33:50;;;;;;;27.90;14.20;;;9.20;46.30;;;;;;5135533;27;20532;-84
2022/03/26 07:36:17;;;;;;;32.93;15.70;;;9.20;47.00;;;;;;5135316;27;21008;-84
2022/03/26 07:38:45;;;;;;;27.10;14.47;;;9.30;47.10;;;;;;5134010;27;20470;-84
2022/03/26 07:41:12;;;;;;;25.50;13.70;;;9.40;47.10;;;;;;5135099;27;20446;-85
2022/03/26 07:43:39;;;;;;;28.10;15.07;;;9.50;46.90;;;;;;5135359;27;20463;-84
2022/03/26 07:46:07;;;;;;;25.50;13.40;;;9.70;46.70;;;;;;5114148;27;21151;-85
2022/03/26 07:48:35;;;;;;;28.83;15.47;;;9.70;46.00;;;;;;5135918;27;21100;-85
2022/03/26 07:51:02;;;;;;;28.20;14.03;;;9.70;46.00;;;;;;5117727;27;20474;-84
2022/03/26 07:53:29;;;;;;;22.10;13.53;;;9.80;46.20;;;;;;5109282;27;20445;-83
2022/03/26 07:55:57;;;;;;;22.57;12.57;;;9.90;46.40;;;;;;5113632;27;20445;-85
2022/03/26 07:58:24;;;;;;;26.57;13.40;;;9.90;46.10;;;;;;5135106;27;21140;-85
2022/03/26 08:00:51;;;;;;;26.30;13.50;;;10.00;45.10;;;;;;5132314;27;20449;-84
2022/03/26 08:03:18;;;;;;;23.40;12.10;;;10.10;45.00;;;;;;5133000;27;20449;-84
2022/03/26 08:05:47;;;;;;;30.03;13.43;;;10.20;44.90;;;;;;5133533;27;20457;-84
2022/03/26 08:08:14;;;;;;;24.67;13.63;;;10.30;44.70;;;;;;5135022;27;20467;-85
2022/03/26 08:10:41;;;;;;;29.63;13.30;;;10.40;44.50;;;;;;5133787;27;20561;-85
2022/03/26 08:13:08;;;;;;;27.60;13.33;;;10.50;44.30;;;;;;5131395;27;20510;-84
2022/03/26 08:15:35;;;;;;;27.77;12.73;;;10.60;44.10;;;;;;5134354;27;20484;-84
2022/03/26 08:18:03;;;;;;;25.57;13.67;;;10.70;44.00;;;;;;5131986;27;20472;-85
2022/03/26 08:20:31;;;;;;;29.27;13.17;;;10.90;44.10;;;;;;5134686;27;21012;-85
2022/03/26 08:22:59;;;;;;;24.70;13.40;;;11.00;44.40;;;;;;5124955;27;20466;-84
2022/03/26 08:28:12;;;;;;;26.13;13.20;;;11.20;43.80;;;;;;5134625;27;20476;-84
2022/03/26 08:30:40;;;;;;;33.93;13.43;;;11.30;43.50;;;;;;5137153;27;20511;-84
2022/03/26 08:33:07;;;;;;;28.90;14.60;;;11.40;43.00;;;;;;5132586;27;20497;-85
2022/03/26 08:35:34;;;;;;;38.53;15.57;;;11.40;43.00;;;;;;5134767;27;20458;-84
2022/03/26 08:38:03;;;;;;;34.13;16.23;;;11.50;42.90;;;;;;5131627;27;21032;-85
2022/03/26 08:40:30;;;;;;;40.47;14.40;;;11.70;42.80;;;;;;5116356;27;20444;-85
2022/03/26 08:42:58;;;;;;;31.47;13.07;;;11.90;42.80;;;;;;5130921;27;20453;-85
2022/03/26 08:45:26;;;;;;;39.03;14.23;;;12.10;42.90;;;;;;5129484;27;20468;-85
2022/03/26 08:47:53;;;;;;;30.83;14.70;;;12.20;42.60;;;;;;5132437;27;20557;-85
2022/03/26 08:50:20;;;;;;;43.03;14.70;;;12.30;42.00;;;;;;5133638;27;20461;-85
2022/03/26 08:52:48;;;;;;;30.90;13.47;;;12.50;42.30;;;;;;5133882;27;20442;-84
2022/03/26 08:55:17;;;;;;;30.63;14.50;;;12.60;42.60;;;;;;5134342;27;20433;-85
2022/03/26 08:57:45;;;;;;;32.83;15.67;;;12.90;42.80;;;;;;5134692;27;20488;-85
2022/03/26 09:00:14;;;;;;;28.60;14.07;;;13.10;42.50;;;;;;5133937;27;20436;-85
2022/03/26 09:02:41;;;;;;;25.33;13.50;;;13.20;42.30;;;;;;5135884;27;20504;-85
2022/03/26 09:05:09;;;;;;;29.50;15.47;;;13.30;42.60;;;;;;5130912;27;20539;-85
2022/03/26 09:07:37;;;;;;;25.53;14.63;;;13.60;42.40;;;;;;5134161;27;20461;-85
2022/03/26 09:10:05;;;;;;;30.90;14.60;;;13.70;42.00;;;;;;5132577;27;20477;-85
2022/03/26 09:12:34;;;;;;;53.80;17.00;;;13.90;41.80;;;;;;5134450;27;20449;-83
2022/03/26 09:15:01;;;;;;;36.17;16.23;;;14.10;42.20;;;;;;5131462;27;20455;-83
2022/03/26 09:17:28;;;;;;;27.30;14.70;;;14.20;41.70;;;;;;5133418;27;20575;-83
2022/03/26 09:19:55;;;;;;;33.73;15.30;;;14.30;41.50;;;;;;5130173;27;20446;-83
2022/03/26 09:22:23;;;;;;;28.77;15.47;;;14.50;42.00;;;;;;5133135;27;20454;-84
2022/03/26 09:24:50;;;;;;;32.50;15.67;;;14.80;41.80;;;;;;5132418;27;20608;-83
2022/03/26 09:27:17;;;;;;;27.50;14.20;;;14.90;40.70;;;;;;5131808;27;20453;-84
2022/03/26 09:29:46;;;;;;;29.10;14.90;;;15.10;40.40;;;;;;5132179;27;20447;-84
2022/03/26 09:32:13;;;;;;;32.03;16.83;;;15.30;39.30;;;;;;5128918;27;20884;-84
2022/03/26 09:34:40;;;;;;;28.00;14.47;;;15.50;38.10;;;;;;5132374;27;20514;-84
2022/03/26 09:37:08;;;;;;;29.07;14.80;;;15.80;37.20;;;;;;5131284;27;20462;-84
2022/03/26 09:39:35;;;;;;;38.30;16.10;;;15.70;35.50;;;;;;5094505;27;20457;-84
2022/03/26 09:42:04;;;;;;;33.27;15.07;;;15.90;36.00;;;;;;5131379;27;20450;-84
2022/03/26 09:44:33;;;;;;;35.53;17.10;;;16.30;36.10;;;;;;5131584;27;20449;-83
2022/03/26 09:47:03;;;;;;;35.20;15.87;;;16.60;35.00;;;;;;5130290;27;20450;-84
2022/03/26 09:49:30;;;;;;;30.23;15.60;;;16.90;33.80;;;;;;5122544;27;20471;-85
2022/03/26 09:51:58;;;;;;;32.50;15.73;;;17.00;33.90;;;;;;5127569;27;20472;-84
2022/03/26 09:54:25;;;;;;;31.57;14.50;;;17.10;34.30;;;;;;5113143;27;20447;-84
2022/03/26 09:56:52;;;;;;;29.67;14.90;;;17.50;33.90;;;;;;5128833;27;20796;-83
2022/03/26 09:59:21;;;;;;;31.23;15.93;;;17.90;33.10;;;;;;5133214;27;21016;-85
2022/03/26 10:01:48;;;;;;;33.07;15.20;;;17.90;32.00;;;;;;5129992;27;20469;-84
2022/03/26 10:04:18;;;;;;;26.13;14.33;;;18.10;31.40;;;;;;5130590;27;20429;-84
2022/03/26 10:06:50;;;;;;;28.23;15.20;;;18.10;31.30;;;;;;5130516;27;20445;-84
2022/03/26 10:09:26;;;;;;;32.20;17.20;;;18.20;31.50;;;;;;5131479;27;21051;-84
2022/03/26 10:12:00;;;;;;;36.80;16.50;;;18.50;30.50;;;;;;5129617;27;20561;-84
2022/03/26 10:14:44;;;;;;;33.23;16.33;;;18.50;30.10;;;;;;5127590;27;20502;-84
2022/03/26 10:17:17;;;;;;;29.40;14.50;;;18.70;30.60;;;;;;5129243;27;20722;-84
2022/03/26 10:19:48;;;;;;;27.60;14.90;;;18.90;30.30;;;;;;5130995;27;20541;-84
2022/03/26 10:22:30;;;;;;;33.87;15.87;;;18.90;29.50;;;;;;5132687;27;20516;-84
2022/03/26 10:24:58;;;;;;;26.93;14.63;;;18.90;29.30;;;;;;5126204;27;20442;-85
2022/03/26 10:27:26;;;;;;;24.03;14.33;;;18.70;29.10;;;;;;5131156;27;21226;-84
2022/03/26 10:29:55;;;;;;;25.90;13.30;;;18.60;29.00;;;;;;5130393;27;20449;-84
2022/03/26 10:35:21;;;;;;;31.47;15.87;;;18.90;29.00;;;;;;5110961;27;20870;-84
2022/03/26 10:37:56;;;;;;;25.73;14.50;;;19.30;29.00;;;;;;5130990;27;20471;-84
2022/03/26 10:40:34;;;;;;;33.60;18.17;;;19.50;28.00;;;;;;5129903;27;20537;-84
2022/03/26 10:43:07;;;;;;;34.63;17.40;;;19.80;29.60;;;;;;5125132;27;20437;-85
2022/03/26 10:45:37;;;;;;;31.17;14.07;;;20.30;29.20;;;;;;5132563;27;20442;-84
2022/03/26 10:48:09;;;;;;;28.17;14.40;;;20.30;27.60;;;;;;5131158;27;21360;-84
2022/03/26 10:50:38;;;;;;;29.13;13.20;;;20.00;27.70;;;;;;5132060;27;20442;-84
2022/03/26 10:53:11;;;;;;;26.47;14.00;;;20.30;28.90;;;;;;5131659;27;20802;-84
2022/03/26 10:55:40;;;;;;;27.83;12.70;;;20.40;27.80;;;;;;5130383;27;21514;-85
2022/03/26 10:58:08;;;;;;;25.17;14.23;;;20.10;28.20;;;;;;5131124;27;20521;-84
2022/03/26 11:00:35;;;;;;;29.60;13.70;;;20.20;27.40;;;;;;5131959;27;20457;-84
2022/03/26 11:03:03;;;;;;;19.70;11.23;;;20.60;27.90;;;;;;5131156;27;20464;-85
2022/03/26 11:05:31;;;;;;;21.90;9.87;;;20.70;26.20;;;;;;5129907;27;20442;-84
2022/03/26 11:08:01;;;;;;;24.03;11.23;;;20.40;25.60;;;;;;5126670;27;20465;-84
2022/03/26 11:10:31;;;;;;;17.60;10.15;;;20.40;25.80;;;;;;5130630;27;20762;-84
2022/03/26 11:13:00;;;;;;;25.03;10.83;;;20.40;26.10;;;;;;5130378;27;20522;-85
2022/03/26 11:15:31;;;;;;;20.43;10.23;;;20.70;26.30;;;;;;5128695;27;20584;-84
2022/03/26 11:18:18;;;;;;;22.53;10.97;;;21.00;26.20;;;;;;5129362;27;20475;-84
2022/03/26 11:21:18;;;;;;;21.43;11.53;;;21.20;25.40;;;;;;5130124;27;20959;-81
2022/03/26 11:24:07;;;;;;;17.23;10.97;;;21.00;25.70;;;;;;5113985;27;21070;-83
2022/03/26 11:26:49;;;;;;;20.30;10.63;;;21.20;25.70;;;;;;5129838;27;20441;-83
2022/03/26 11:29:40;;;;;;;23.50;9.97;;;21.30;24.30;;;;;;5128480;27;20569;-83
2022/03/26 11:32:17;;;;;;;17.07;8.47;;;21.50;25.10;;;;;;5128873;27;20472;-83
2022/03/26 11:34:44;;;;;;;19.80;8.27;;;21.60;24.00;;;;;;5130967;27;20448;-84
2022/03/26 11:37:11;;;;;;;18.70;10.00;;;21.70;24.30;;;;;;5108742;27;20446;-84
2022/03/26 11:39:47;;;;;;;20.27;10.23;;;21.80;24.20;;;;;;5130604;27;21082;-84
2022/03/26 11:42:15;;;;;;;18.77;9.40;;;22.10;24.30;;;;;;5130984;27;20527;-84
2022/03/26 11:50:40;;;;;;;18.00;8.83;;;22.30;23.90;;;;;;5129701;27;20450;-84
2022/03/26 11:53:09;;;;;;;16.80;8.77;;;22.80;23.00;;;;;;5129283;27;20466;-84
2022/03/26 11:55:46;;;;;;;21.40;8.73;;;22.70;23.50;;;;;;5127363;27;20957;-83
2022/03/26 11:58:24;;;;;;;17.30;7.10;;;22.00;23.90;;;;;;5110043;27;20806;-85
2022/03/26 12:00:55;;;;;;;21.40;8.00;;;22.10;23.90;;;;;;5129235;27;20469;-84
2022/03/26 12:03:23;;;;;;;18.90;8.63;;;22.10;23.70;;;;;;5131317;27;20462;-86
2022/03/26 12:08:41;;;;;;;15.40;8.20;;;22.30;24.40;;;;;;5113188;27;20832;-85
2022/03/26 12:11:13;;;;;;;19.97;8.20;;;22.60;24.00;;;;;;5132837;27;20860;-84
2022/03/26 12:13:40;;;;;;;19.77;8.43;;;22.80;23.70;;;;;;5115336;27;20446;-84
2022/03/26 12:16:08;;;;;;;16.93;8.80;;;22.50;23.90;;;;;;5132708;27;20496;-84
2022/03/26 12:18:36;;;;;;;19.33;8.43;;;22.50;23.70;;;;;;5133512;27;20465;-85
2022/03/26 12:21:08;;;;;;;14.30;6.50;;;22.50;24.00;;;;;;5127350;27;20454;-85
2022/03/26 12:23:35;;;;;;;19.23;7.83;;;22.80;23.60;;;;;;5135438;27;20484;-84
2022/03/26 12:26:05;;;;;;;24.67;9.37;;;22.90;23.80;;;;;;5133385;27;20432;-84
2022/03/26 12:28:36;;;;;;;19.27;8.83;;;23.00;24.60;;;;;;5133955;27;21532;-84
2022/03/26 12:31:05;;;;;;;14.67;7.60;;;23.50;24.00;;;;;;5133125;27;20486;-84
2022/03/26 12:33:43;;;;;;;24.13;8.00;;;23.80;22.80;;;;;;5132282;27;20524;-84
2022/03/26 12:36:11;;;;;;;18.90;7.63;;;23.90;21.90;;;;;;5131702;27;20453;-84
2022/03/26 12:38:39;;;;;;;12.73;7.07;;;23.90;22.60;;;;;;5132630;27;20984;-82
2022/03/26 12:41:08;;;;;;;15.53;8.97;;;23.70;22.40;;;;;;5132549;27;20446;-85
2022/03/26 12:43:36;;;;;;;17.40;9.10;;;23.50;22.60;;;;;;5131527;27;20460;-84
2022/03/26 12:46:09;;;;;;;13.90;7.50;;;23.50;23.00;;;;;;5125322;27;20449;-85
2022/03/26 12:48:37;;;;;;;15.73;8.57;;;23.70;22.80;;;;;;5112481;27;20564;-86
2022/03/26 12:51:05;;;;;;;17.80;8.87;;;23.80;22.70;;;;;;5109634;27;20931;-85